sensor_id;sensor_type;location;lat;lon;timestamp;P1;durP1;ratioP1;P2;durP2;ratioP2
45940;SDS011;31858;46.008;8.978;2023-02-28T00:08:18;11.98;;;9.35;;
45940;SDS011;31858;46.008;8.978;2023-02-28T00:18:21;14.57;;;9.45;;
45940;SDS011;31858;46.008;8.978;2023-02-28T00:28:23;10.07;;;9.05;;
45940;SDS011;31858;46.008;8.978;2023-02-28T00:38:27;10.85;;;9.73;;
45940;SDS011;31858;46.008;8.978;2023-02-28T00:48:28;11.05;;;9.40;;
45940;SDS011;31858;46.008;8.978;2023-02-28T00:58:31;10.35;;;9.35;;
45940;SDS011;31858;46.008;8.978;2023-02-28T01:08:33;11.00;;;9.85;;
45940;SDS011;31858;46.008;8.978;2023-02-28T01:18:36;10.93;;;9.52;;
45940;SDS011;31858;46.008;8.978;2023-02-28T01:28:38;13.98;;;10.25;;
45940;SDS011;31858;46.008;8.978;2023-02-28T01:38:41;11.55;;;10.35;;
45940;SDS011;31858;46.008;8.978;2023-02-28T01:48:44;12.45;;;10.90;;
45940;SDS011;31858;46.008;8.978;2023-02-28T01:58:50;14.55;;;10.43;;
45940;SDS011;31858;46.008;8.978;2023-02-28T02:08:54;12.82;;;11.00;;
45940;SDS011;31858;46.008;8.978;2023-02-28T02:18:59;14.07;;;12.68;;
45940;SDS011;31858;46.008;8.978;2023-02-28T02:29:23;11.40;;;9.87;;
45940;SDS011;31858;46.008;8.978;2023-02-28T02:39:50;13.97;;;12.57;;
45940;SDS011;31858;46.008;8.978;2023-02-28T02:49:56;14.65;;;13.10;;
45940;SDS011;31858;46.008;8.978;2023-02-28T03:00:03;14.70;;;12.35;;
45940;SDS011;31858;46.008;8.978;2023-02-28T03:10:29;12.13;;;10.75;;
45940;SDS011;31858;46.008;8.978;2023-02-28T03:20:37;13.93;;;11.90;;
45940;SDS011;31858;46.008;8.978;2023-02-28T03:30:45;13.05;;;11.65;;
45940;SDS011;31858;46.008;8.978;2023-02-28T03:40:57;14.40;;;12.52;;
45940;SDS011;31858;46.008;8.978;2023-02-28T03:51:03;14.40;;;12.67;;
45940;SDS011;31858;46.008;8.978;2023-02-28T04:01:11;15.40;;;13.13;;
45940;SDS011;31858;46.008;8.978;2023-02-28T04:11:18;14.13;;;12.55;;
45940;SDS011;31858;46.008;8.978;2023-02-28T04:21:24;15.75;;;13.60;;
45940;SDS011;31858;46.008;8.978;2023-02-28T04:31:26;17.13;;;14.20;;
45940;SDS011;31858;46.008;8.978;2023-02-28T04:41:29;16.02;;;14.27;;
45940;SDS011;31858;46.008;8.978;2023-02-28T04:51:31;15.32;;;13.73;;
45940;SDS011;31858;46.008;8.978;2023-02-28T05:01:34;15.35;;;13.75;;
45940;SDS011;31858;46.008;8.978;2023-02-28T05:11:36;15.73;;;14.10;;
45940;SDS011;31858;46.008;8.978;2023-02-28T05:21:41;17.02;;;14.30;;
45940;SDS011;31858;46.008;8.978;2023-02-28T05:31:49;16.23;;;14.47;;
45940;SDS011;31858;46.008;8.978;2023-02-28T05:41:52;20.73;;;15.80;;
45940;SDS011;31858;46.008;8.978;2023-02-28T05:51:53;19.25;;;16.23;;
45940;SDS011;31858;46.008;8.978;2023-02-28T06:01:56;21.48;;;19.08;;
45940;SDS011;31858;46.008;8.978;2023-02-28T06:11:58;19.13;;;16.42;;
45940;SDS011;31858;46.008;8.978;2023-02-28T06:22:01;18.80;;;16.35;;
45940;SDS011;31858;46.008;8.978;2023-02-28T06:32:02;22.83;;;19.08;;
45940;SDS011;31858;46.008;8.978;2023-02-28T06:42:05;29.35;;;20.50;;
45940;SDS011;31858;46.008;8.978;2023-02-28T06:52:07;26.65;;;21.98;;
45940;SDS011;31858;46.008;8.978;2023-02-28T07:02:11;32.13;;;23.08;;
45940;SDS011;31858;46.008;8.978;2023-02-28T07:12:12;30.35;;;23.80;;
45940;SDS011;31858;46.008;8.978;2023-02-28T07:22:15;30.80;;;23.75;;
45940;SDS011;31858;46.008;8.978;2023-02-28T07:32:17;32.90;;;23.08;;
45940;SDS011;31858;46.008;8.978;2023-02-28T07:42:20;28.48;;;22.23;;
45940;SDS011;31858;46.008;8.978;2023-02-28T07:52:21;31.35;;;21.73;;
45940;SDS011;31858;46.008;8.978;2023-02-28T08:02:25;29.83;;;22.23;;
45940;SDS011;31858;46.008;8.978;2023-02-28T08:12:27;27.77;;;20.85;;
45940;SDS011;31858;46.008;8.978;2023-02-28T08:22:30;27.77;;;21.75;;
45940;SDS011;31858;46.008;8.978;2023-02-28T08:32:31;24.13;;;17.90;;
45940;SDS011;31858;46.008;8.978;2023-02-28T08:42:35;26.00;;;17.50;;
45940;SDS011;31858;46.008;8.978;2023-02-28T08:52:37;23.13;;;19.08;;
45940;SDS011;31858;46.008;8.978;2023-02-28T09:02:40;23.33;;;19.20;;
45940;SDS011;31858;46.008;8.978;2023-02-28T09:12:43;24.55;;;19.00;;
45940;SDS011;31858;46.008;8.978;2023-02-28T09:22:48;28.02;;;21.95;;
45940;SDS011;31858;46.008;8.978;2023-02-28T09:32:49;24.38;;;19.83;;
45940;SDS011;31858;46.008;8.978;2023-02-28T09:42:54;23.33;;;18.55;;
45940;SDS011;31858;46.008;8.978;2023-02-28T09:52:58;31.20;;;21.50;;
45940;SDS011;31858;46.008;8.978;2023-02-28T10:03:10;27.83;;;21.58;;
45940;SDS011;31858;46.008;8.978;2023-02-28T10:13:27;25.67;;;20.55;;
45940;SDS011;31858;46.008;8.978;2023-02-28T10:23:37;28.25;;;22.83;;
45940;SDS011;31858;46.008;8.978;2023-02-28T10:33:38;24.73;;;21.27;;
45940;SDS011;31858;46.008;8.978;2023-02-28T10:43:42;24.42;;;19.17;;
45940;SDS011;31858;46.008;8.978;2023-02-28T10:53:45;26.23;;;19.65;;
45940;SDS011;31858;46.008;8.978;2023-02-28T11:03:51;27.10;;;20.38;;
45940;SDS011;31858;46.008;8.978;2023-02-28T11:13:54;21.00;;;18.38;;
45940;SDS011;31858;46.008;8.978;2023-02-28T11:24:00;22.98;;;19.48;;
45940;SDS011;31858;46.008;8.978;2023-02-28T11:34:21;24.42;;;19.00;;
45940;SDS011;31858;46.008;8.978;2023-02-28T11:44:33;20.95;;;18.45;;
45940;SDS011;31858;46.008;8.978;2023-02-28T11:54:49;22.80;;;18.30;;
45940;SDS011;31858;46.008;8.978;2023-02-28T12:05:09;23.15;;;18.38;;
45940;SDS011;31858;46.008;8.978;2023-02-28T12:15:24;18.95;;;16.20;;
45940;SDS011;31858;46.008;8.978;2023-02-28T12:25:40;16.60;;;14.63;;
45940;SDS011;31858;46.008;8.978;2023-02-28T12:35:52;17.75;;;15.82;;
45940;SDS011;31858;46.008;8.978;2023-02-28T12:45:58;20.30;;;16.50;;
45940;SDS011;31858;46.008;8.978;2023-02-28T12:56:08;17.73;;;14.82;;
45940;SDS011;31858;46.008;8.978;2023-02-28T13:06:30;16.30;;;14.60;;
45940;SDS011;31858;46.008;8.978;2023-02-28T13:16:57;16.30;;;14.00;;
45940;SDS011;31858;46.008;8.978;2023-02-28T13:27:20;16.05;;;14.23;;
45940;SDS011;31858;46.008;8.978;2023-02-28T13:37:33;17.63;;;15.32;;
45940;SDS011;31858;46.008;8.978;2023-02-28T13:47:39;18.60;;;14.43;;
45940;SDS011;31858;46.008;8.978;2023-02-28T13:57:47;20.58;;;15.75;;
45940;SDS011;31858;46.008;8.978;2023-02-28T14:08:04;18.38;;;15.68;;
45940;SDS011;31858;46.008;8.978;2023-02-28T14:18:20;20.83;;;15.18;;
45940;SDS011;31858;46.008;8.978;2023-02-28T14:28:27;21.17;;;15.68;;
45940;SDS011;31858;46.008;8.978;2023-02-28T14:38:45;19.02;;;15.32;;
45940;SDS011;31858;46.008;8.978;2023-02-28T14:48:52;16.75;;;14.02;;
45940;SDS011;31858;46.008;8.978;2023-02-28T14:58:54;15.20;;;13.27;;
45940;SDS011;31858;46.008;8.978;2023-02-28T15:09:08;18.05;;;14.38;;
45940;SDS011;31858;46.008;8.978;2023-02-28T15:19:12;15.13;;;13.32;;
45940;SDS011;31858;46.008;8.978;2023-02-28T15:29:20;14.05;;;12.52;;
45940;SDS011;31858;46.008;8.978;2023-02-28T15:49:28;15.32;;;13.38;;
45940;SDS011;31858;46.008;8.978;2023-02-28T15:59:31;15.10;;;11.90;;
45940;SDS011;31858;46.008;8.978;2023-02-28T16:09:34;15.63;;;11.85;;
45940;SDS011;31858;46.008;8.978;2023-02-28T16:19:37;12.82;;;11.27;;
45940;SDS011;31858;46.008;8.978;2023-02-28T16:29:40;13.32;;;11.63;;
45940;SDS011;31858;46.008;8.978;2023-02-28T16:39:42;13.73;;;11.98;;
45940;SDS011;31858;46.008;8.978;2023-02-28T16:49:46;14.88;;;13.10;;
45940;SDS011;31858;46.008;8.978;2023-02-28T16:59:47;13.93;;;12.43;;
45940;SDS011;31858;46.008;8.978;2023-02-28T17:09:52;13.68;;;11.88;;
45940;SDS011;31858;46.008;8.978;2023-02-28T17:19:53;15.57;;;13.25;;
45940;SDS011;31858;46.008;8.978;2023-02-28T17:29:56;15.30;;;13.07;;
45940;SDS011;31858;46.008;8.978;2023-02-28T17:39:58;16.80;;;13.70;;
45940;SDS011;31858;46.008;8.978;2023-02-28T17:50:01;17.88;;;13.95;;
45940;SDS011;31858;46.008;8.978;2023-02-28T18:00:02;18.42;;;14.27;;
45940;SDS011;31858;46.008;8.978;2023-02-28T18:10:10;18.70;;;14.57;;
45940;SDS011;31858;46.008;8.978;2023-02-28T18:20:19;18.33;;;14.77;;
45940;SDS011;31858;46.008;8.978;2023-02-28T18:30:22;18.23;;;14.95;;
45940;SDS011;31858;46.008;8.978;2023-02-28T18:40:25;18.42;;;14.27;;
45940;SDS011;31858;46.008;8.978;2023-02-28T18:50:28;17.80;;;14.25;;
45940;SDS011;31858;46.008;8.978;2023-02-28T19:00:30;16.70;;;13.65;;
45940;SDS011;31858;46.008;8.978;2023-02-28T19:10:33;17.25;;;13.88;;
45940;SDS011;31858;46.008;8.978;2023-02-28T19:20:35;18.65;;;14.15;;
45940;SDS011;31858;46.008;8.978;2023-02-28T19:30:38;21.05;;;13.57;;
45940;SDS011;31858;46.008;8.978;2023-02-28T19:40:39;21.92;;;14.80;;
45940;SDS011;31858;46.008;8.978;2023-02-28T19:50:42;21.45;;;16.42;;
45940;SDS011;31858;46.008;8.978;2023-02-28T20:00:44;22.25;;;16.60;;
45940;SDS011;31858;46.008;8.978;2023-02-28T20:10:47;22.67;;;16.60;;
45940;SDS011;31858;46.008;8.978;2023-02-28T20:20:48;22.45;;;16.70;;
45940;SDS011;31858;46.008;8.978;2023-02-28T20:30:51;21.80;;;17.00;;
45940;SDS011;31858;46.008;8.978;2023-02-28T20:40:53;20.75;;;16.77;;
45940;SDS011;31858;46.008;8.978;2023-02-28T20:50:56;22.05;;;16.73;;
45940;SDS011;31858;46.008;8.978;2023-02-28T21:01:00;22.77;;;16.90;;
45940;SDS011;31858;46.008;8.978;2023-02-28T21:11:06;22.90;;;17.27;;
45940;SDS011;31858;46.008;8.978;2023-02-28T21:21:10;22.67;;;17.70;;
45940;SDS011;31858;46.008;8.978;2023-02-28T21:31:15;23.33;;;17.42;;
45940;SDS011;31858;46.008;8.978;2023-02-28T21:41:19;23.05;;;17.15;;
45940;SDS011;31858;46.008;8.978;2023-02-28T21:51:25;24.45;;;18.33;;
45940;SDS011;31858;46.008;8.978;2023-02-28T22:01:28;25.75;;;19.17;;
45940;SDS011;31858;46.008;8.978;2023-02-28T22:11:32;28.80;;;19.20;;
45940;SDS011;31858;46.008;8.978;2023-02-28T22:21:35;25.70;;;19.20;;
45940;SDS011;31858;46.008;8.978;2023-02-28T22:31:39;24.83;;;19.58;;
45940;SDS011;31858;46.008;8.978;2023-02-28T22:41:41;26.70;;;20.17;;
45940;SDS011;31858;46.008;8.978;2023-02-28T22:51:45;25.85;;;20.40;;
45940;SDS011;31858;46.008;8.978;2023-02-28T23:01:47;27.33;;;21.33;;
45940;SDS011;31858;46.008;8.978;2023-02-28T23:11:50;27.25;;;20.73;;
45940;SDS011;31858;46.008;8.978;2023-02-28T23:21:52;29.63;;;21.00;;
45940;SDS011;31858;46.008;8.978;2023-02-28T23:31:55;29.40;;;21.27;;
45940;SDS011;31858;46.008;8.978;2023-02-28T23:41:56;34.67;;;23.35;;
45940;SDS011;31858;46.008;8.978;2023-02-28T23:52:00;28.45;;;21.75;;
